| Date | Time | Temp. (oF) | Dew Point (oF) | Rel. Hum. (%) | Press. (in.) | Wind Dir. | Wind Speed (mph) | Hourly Rainfall (in.) |
|
|---|---|---|---|---|---|---|---|---|---|
| 1 | 02/10 | 00:00 | 34 | 31 | 89 | 30.54 | ESE | 3 | 0.00 |
| 2 | 02/09 | 23:00 | 35 | 31 | 88 | 30.53 | E | 2 | 0.00 |
| 3 | 02/09 | 22:00 | 36 | 31 | 84 | 30.55 | ESE | 1 | 0.00 |
| 4 | 02/09 | 21:00 | 37 | 31 | 79 | 30.52 | S | 3 | 0.00 |
| 5 | 02/09 | 20:00 | 40 | 29 | 67 | 30.52 | ESE | 4 | 0.00 |
| 6 | 02/09 | 19:00 | 42 | 31 | 66 | 30.51 | SSE | 3 | 0.00 |
| 7 | 02/09 | 18:00 | 44 | 30 | 60 | 30.48 | S | 8 | 0.00 |
| 8 | 02/09 | 17:00 | 47 | 31 | 55 | 30.46 | SSE | 8 | 0.00 |
| 9 | 02/09 | 16:00 | 50 | 30 | 47 | 30.46 | SSE | 4 | 0.00 |
| 10 | 02/09 | 15:00 | 51 | 31 | 48 | 30.45 | W | 7 | 0.00 |
| 11 | 02/09 | 14:00 | 50 | 32 | 50 | 30.45 | S | 3 | 0.00 |
| 12 | 02/09 | 13:00 | 48 | 33 | 56 | 30.47 | ENE | 4 | 0.00 |
| 13 | 02/09 | 12:00 | 45 | 31 | 58 | 30.48 | SE | 3 | 0.00 |
| 14 | 02/09 | 11:00 | 43 | 30 | 61 | 30.49 | NNE | 3 | 0.00 |
| 15 | 02/09 | 10:00 | 41 | 30 | 67 | 30.49 | E | 3 | 0.00 |
| 16 | 02/09 | 09:00 | 34 | 29 | 84 | 30.48 | SSW | 1 | 0.00 |
| 17 | 02/09 | 08:00 | 28 | 25 | 90 | 30.44 | S | 2 | 0.00 |
| 18 | 02/09 | 07:00 | 28 | 24 | 86 | 30.42 | SE | 1 | 0.00 |
| 19 | 02/09 | 06:00 | 30 | 25 | 82 | 30.38 | WNW | 4 | 0.00 |
| 20 | 02/09 | 05:00 | 34 | 26 | 73 | 30.35 | N | 0 | 0.00 |
| 21 | 02/09 | 04:00 | 36 | 26 | 67 | 30.33 | E | 2 | 0.00 |
| 22 | 02/09 | 03:00 | 37 | 26 | 66 | 30.30 | N | 8 | 0.00 |
| 23 | 02/09 | 02:00 | 37 | 25 | 63 | 30.27 | SSE | 2 | 0.00 |
| 24 | 02/09 | 01:00 | 39 | 24 | 55 | 30.23 | NW | 2 | 0.00 |